Time;durP1;ratioP1;P1;durP2;ratioP2;P2;SDS_P1;SDS_P2;PMS_P1;PMS_P2;Temp;Humidity;BMP_temperature;BMP_pressure;BME280_temperature;BME280_humidity;BME280_pressure;Samples;Min_cycle;Max_cycle;Signal;HPM_P1;HPM_P2
2022/12/25 00:01:24;;;;;;;;;31.50;23.50;;;;;;;;116732;1203;25450;-80
2022/12/25 00:03:52;;;;;;;;;35.00;24.50;;;;;;;;116803;1207;25384;-81
2022/12/25 00:06:21;;;;;;;;;27.00;25.00;;;;;;;;116700;1203;24790;-81
2022/12/25 00:08:49;;;;;;;;;25.00;23.00;;;;;;;;116747;1196;25050;-81
2022/12/25 00:11:18;;;;;;;;;39.50;32.50;;;;;;;;116708;1200;25358;-80
2022/12/25 00:13:47;;;;;;;;;33.50;30.50;;;;;;;;116780;1197;24761;-80
2022/12/25 00:16:18;;;;;;;;;23.00;23.00;;;;;;;;116715;1203;25007;-81
2022/12/25 00:18:47;;;;;;;;;40.00;32.50;;;;;;;;116791;1198;25079;-81
2022/12/25 00:21:16;;;;;;;;;41.67;34.00;;;;;;;;116765;1203;25621;-80
2022/12/25 00:23:44;;;;;;;;;35.50;31.00;;;;;;;;116767;1202;24854;-81
2022/12/25 00:26:15;;;;;;;;;30.00;28.50;;;;;;;;116732;1197;25459;-81
2022/12/25 00:28:43;;;;;;;;;33.50;29.50;;;;;;;;116793;1200;24748;-80
2022/12/25 00:31:15;;;;;;;;;36.00;30.00;;;;;;;;116764;1200;24653;-80
2022/12/25 00:33:45;;;;;;;;;26.00;23.50;;;;;;;;116781;1203;24862;-79
2022/12/25 00:36:15;;;;;;;;;32.00;30.00;;;;;;;;116780;1194;25021;-78
2022/12/25 00:38:44;;;;;;;;;35.00;28.00;;;;;;;;116820;1193;25758;-79
2022/12/25 00:41:15;;;;;;;;;33.00;26.50;;;;;;;;116804;1199;25055;-80
2022/12/25 00:43:43;;;;;;;;;37.50;29.00;;;;;;;;116767;1193;24805;-80
2022/12/25 00:46:12;;;;;;;;;35.00;31.50;;;;;;;;116788;1203;25149;-80
2022/12/25 00:48:44;;;;;;;;;41.00;31.00;;;;;;;;116735;1197;25572;-80
2022/12/25 00:51:12;;;;;;;;;37.50;31.00;;;;;;;;116765;1198;24899;-79
2022/12/25 00:53:40;;;;;;;;;32.00;26.50;;;;;;;;116759;1200;25130;-79
2022/12/25 00:56:09;;;;;;;;;44.00;31.00;;;;;;;;116727;1208;25486;-80
2022/12/25 00:58:37;;;;;;;;;40.33;32.33;;;;;;;;116776;1195;25707;-80
2022/12/25 01:01:06;;;;;;;;;34.00;27.00;;;;;;;;116764;1200;25498;-79
2022/12/25 01:03:34;;;;;;;;;43.00;30.00;;;;;;;;116705;1199;25522;-80
2022/12/25 01:06:06;;;;;;;;;35.00;30.00;;;;;;;;116787;1197;25027;-80
2022/12/25 01:08:36;;;;;;;;;41.50;32.50;;;;;;;;116778;1208;24982;-80
2022/12/25 01:11:07;;;;;;;;;34.00;32.00;;;;;;;;116747;1197;24818;-80
2022/12/25 01:13:36;;;;;;;;;43.00;30.00;;;;;;;;116759;1197;25079;-79
2022/12/25 01:16:09;;;;;;;;;33.00;29.00;;;;;;;;116794;1200;24865;-80
2022/12/25 01:18:37;;;;;;;;;30.00;28.00;;;;;;;;116768;1204;25680;-80
2022/12/25 01:21:11;;;;;;;;;42.00;31.00;;;;;;;;116755;1206;25271;-80
2022/12/25 01:23:39;;;;;;;;;31.00;24.00;;;;;;;;116748;1193;25679;-79
2022/12/25 01:26:09;;;;;;;;;36.00;31.00;;;;;;;;116728;1197;25358;-79
2022/12/25 01:28:38;;;;;;;;;30.00;25.33;;;;;;;;116753;1207;24754;-79
2022/12/25 01:31:12;;;;;;;;;39.00;29.00;;;;;;;;116773;1196;24965;-79
2022/12/25 01:33:41;;;;;;;;;35.50;30.50;;;;;;;;116717;1200;25080;-79
2022/12/25 01:36:20;;;;;;;;;39.00;28.00;;;;;;;;116793;1199;25014;-79
2022/12/25 01:38:50;;;;;;;;;34.67;29.00;;;;;;;;116782;1203;24685;-79
2022/12/25 01:41:20;;;;;;;;;31.00;29.00;;;;;;;;116820;1190;24861;-79
2022/12/25 01:44:11;;;;;;;;;37.00;31.00;;;;;;;;116798;1203;24706;-79
2022/12/25 01:46:40;;;;;;;;;37.00;30.00;;;;;;;;116752;1200;24955;-79
2022/12/25 01:49:14;;;;;;;;;33.00;26.00;;;;;;;;117047;1196;25843;-80
2022/12/25 01:51:44;;;;;;;;;30.50;28.00;;;;;;;;116792;1200;25534;-80
2022/12/25 01:54:16;;;;;;;;;35.50;29.00;;;;;;;;116767;1197;25130;-80
2022/12/25 01:56:47;;;;;;;;;30.00;22.50;;;;;;;;116783;1199;25496;-79
2022/12/25 01:59:17;;;;;;;;;37.00;26.00;;;;;;;;116772;1200;24845;-79
2022/12/25 02:01:46;;;;;;;;;32.50;28.50;;;;;;;;116789;1196;25002;-79
2022/12/25 02:04:48;;;;;;;;;33.50;29.50;;;;;;;;116779;1200;24727;-79
2022/12/25 02:07:17;;;;;;;;;39.00;29.50;;;;;;;;116772;1199;25285;-79
2022/12/25 02:09:46;;;;;;;;;33.00;25.00;;;;;;;;116806;1200;26300;-80
2022/12/25 02:12:23;;;;;;;;;31.50;29.50;;;;;;;;116768;1196;24976;-79
2022/12/25 02:14:54;;;;;;;;;31.00;27.00;;;;;;;;116765;1206;25213;-79
2022/12/25 02:17:49;;;;;;;;;36.50;29.50;;;;;;;;116790;1203;25264;-79
2022/12/25 02:20:26;;;;;;;;;34.50;30.50;;;;;;;;116777;1193;25139;-79
2022/12/25 02:23:18;;;;;;;;;33.33;32.00;;;;;;;;117074;1198;24996;-79
2022/12/25 02:25:58;;;;;;;;;32.00;26.67;;;;;;;;116789;1196;25291;-79
2022/12/25 02:28:33;;;;;;;;;34.50;28.00;;;;;;;;116723;1200;24750;-79
2022/12/25 02:31:23;;;;;;;;;29.00;26.00;;;;;;;;116784;1208;25061;-79
2022/12/25 02:34:03;;;;;;;;;25.50;24.00;;;;;;;;116784;1195;24830;-79
2022/12/25 02:36:47;;;;;;;;;25.00;20.00;;;;;;;;116778;1208;25987;-79
2022/12/25 03:08:27;;;;;;;;;37.00;33.00;;;;;;;;116788;1199;25014;-79
2022/12/25 03:16:49;;;;;;;;;35.00;29.00;;;;;;;;116789;1195;25008;-79
2022/12/25 03:16:50;;;;;;;;;27.00;25.00;;;;;;;;116773;1199;25610;-79
2022/12/25 03:27:48;;;;;;;;;37.00;31.00;;;;;;;;116771;1197;24885;-80
2022/12/25 03:33:15;;;;;;;;;39.67;31.33;;;;;;;;116762;1198;24853;-79
2022/12/25 03:36:06;;;;;;;;;33.00;30.00;;;;;;;;116761;1200;25192;-80
2022/12/25 03:48:06;;;;;;;;;32.00;26.50;;;;;;;;116797;1202;25583;-79
2022/12/25 04:38:19;;;;;;;;;26.00;17.00;;;;;;;;116809;1208;25097;-79
2022/12/25 04:40:48;;;;;;;;;36.00;27.00;;;;;;;;116758;1203;25640;-78
2022/12/25 04:43:16;;;;;;;;;28.00;23.00;;;;;;;;116732;1203;25163;-78
2022/12/25 04:45:53;;;;;;;;;39.00;32.00;;;;;;;;116804;1193;25639;-79
2022/12/25 04:48:23;;;;;;;;;39.00;30.00;;;;;;;;116797;1198;25335;-79
2022/12/25 04:50:52;;;;;;;;;31.00;27.50;;;;;;;;116766;1203;25406;-78
2022/12/25 04:53:20;;;;;;;;;31.00;26.67;;;;;;;;116742;1203;25019;-78
2022/12/25 04:55:48;;;;;;;;;31.67;25.33;;;;;;;;116713;1208;25823;-79
2022/12/25 04:58:16;;;;;;;;;36.50;29.50;;;;;;;;116755;1195;25582;-79
2022/12/25 05:00:44;;;;;;;;;33.50;28.00;;;;;;;;116809;1206;25380;-79
2022/12/25 05:03:13;;;;;;;;;34.00;28.50;;;;;;;;116791;1202;25681;-79
2022/12/25 05:05:41;;;;;;;;;33.00;27.00;;;;;;;;116780;1200;25186;-79
2022/12/25 05:08:10;;;;;;;;;32.50;27.00;;;;;;;;116753;1198;26465;-80
2022/12/25 05:10:39;;;;;;;;;38.50;31.00;;;;;;;;116771;1203;24907;-80
2022/12/25 05:13:07;;;;;;;;;31.50;23.50;;;;;;;;116791;1202;25289;-80
2022/12/25 05:15:38;;;;;;;;;35.00;29.00;;;;;;;;116791;1208;24660;-78
2022/12/25 05:18:07;;;;;;;;;36.00;33.00;;;;;;;;116818;1208;24698;-80
2022/12/25 05:20:35;;;;;;;;;37.00;31.00;;;;;;;;116794;1196;25163;-80
2022/12/25 05:23:11;;;;;;;;;37.00;33.00;;;;;;;;116812;1199;25342;-80
2022/12/25 05:25:39;;;;;;;;;40.00;32.00;;;;;;;;116813;1203;24993;-79
2022/12/25 05:28:07;;;;;;;;;33.50;28.00;;;;;;;;116826;1202;24805;-79
2022/12/25 05:30:36;;;;;;;;;40.00;33.00;;;;;;;;116773;1203;25499;-79
2022/12/25 05:33:04;;;;;;;;;35.00;31.00;;;;;;;;116798;1198;25491;-79
2022/12/25 05:35:35;;;;;;;;;36.00;33.00;;;;;;;;116627;1203;24930;-80
2022/12/25 05:38:04;;;;;;;;;41.50;31.50;;;;;;;;116794;1193;24944;-77
2022/12/25 05:40:36;;;;;;;;;39.00;32.00;;;;;;;;116795;1203;24704;-76
2022/12/25 05:43:05;;;;;;;;;37.67;33.00;;;;;;;;116801;1203;24704;-77
2022/12/25 05:45:33;;;;;;;;;46.67;34.00;;;;;;;;116812;1196;24935;-77
2022/12/25 05:48:02;;;;;;;;;36.50;30.50;;;;;;;;116797;1208;25158;-77
2022/12/25 05:50:30;;;;;;;;;38.67;32.00;;;;;;;;116789;1199;25438;-77
2022/12/25 05:52:58;;;;;;;;;38.00;31.00;;;;;;;;116778;1206;25134;-77
2022/12/25 05:55:39;;;;;;;;;37.00;33.00;;;;;;;;116788;1200;24979;-77
2022/12/25 05:58:09;;;;;;;;;40.00;33.00;;;;;;;;116838;1202;25431;-77
2022/12/25 06:00:37;;;;;;;;;37.50;31.50;;;;;;;;116784;1199;25579;-78
2022/12/25 06:03:05;;;;;;;;;34.00;29.00;;;;;;;;116790;1208;25365;-78
2022/12/25 06:05:37;;;;;;;;;41.00;32.50;;;;;;;;116821;1196;25596;-77
2022/12/25 06:08:06;;;;;;;;;46.50;34.00;;;;;;;;116821;1204;24852;-78
2022/12/25 06:10:35;;;;;;;;;42.00;32.50;;;;;;;;116778;1199;25302;-78
2022/12/25 06:13:03;;;;;;;;;29.00;24.00;;;;;;;;116795;1200;25243;-77
2022/12/25 06:15:32;;;;;;;;;46.50;34.50;;;;;;;;116823;1194;24948;-78
2022/12/25 06:18:01;;;;;;;;;41.00;32.00;;;;;;;;116743;1199;25231;-77
2022/12/25 06:20:29;;;;;;;;;39.00;32.00;;;;;;;;116784;1208;25524;-79
2022/12/25 06:22:58;;;;;;;;;43.00;33.50;;;;;;;;116750;1208;24987;-78
2022/12/25 06:25:26;;;;;;;;;40.50;35.00;;;;;;;;116775;1201;25082;-78
2022/12/25 06:27:54;;;;;;;;;43.50;34.50;;;;;;;;116803;1199;24740;-78
2022/12/25 06:30:22;;;;;;;;;40.00;35.00;;;;;;;;116767;1197;24671;-78
2022/12/25 06:32:51;;;;;;;;;39.00;35.00;;;;;;;;116761;1199;25181;-78
2022/12/25 06:35:19;;;;;;;;;43.00;33.00;;;;;;;;117045;1199;25359;-79
2022/12/25 06:37:47;;;;;;;;;37.50;29.50;;;;;;;;116769;1193;25062;-78
2022/12/25 06:40:16;;;;;;;;;39.00;33.00;;;;;;;;116767;1193;24685;-79
2022/12/25 06:42:44;;;;;;;;;46.00;34.50;;;;;;;;116734;1194;25077;-79
2022/12/25 06:45:12;;;;;;;;;39.00;31.00;;;;;;;;116767;1197;25484;-78
2022/12/25 06:47:40;;;;;;;;;35.50;31.00;;;;;;;;116783;1196;25338;-78
2022/12/25 06:50:09;;;;;;;;;34.67;29.33;;;;;;;;116740;1199;24827;-78
2022/12/25 06:52:37;;;;;;;;;33.50;31.00;;;;;;;;116792;1198;25479;-78
2022/12/25 06:55:06;;;;;;;;;28.00;27.67;;;;;;;;116761;1203;25525;-79
2022/12/25 06:57:34;;;;;;;;;29.00;22.00;;;;;;;;116867;1202;25079;-78
2022/12/25 07:00:04;;;;;;;;;41.00;31.50;;;;;;;;116786;1195;25164;-78
2022/12/25 07:02:32;;;;;;;;;35.00;27.00;;;;;;;;116779;1206;25636;-78
2022/12/25 07:05:02;;;;;;;;;38.00;32.00;;;;;;;;116797;1202;24849;-79
2022/12/25 07:07:30;;;;;;;;;41.00;30.50;;;;;;;;116779;1199;25492;-78
2022/12/25 07:09:58;;;;;;;;;37.00;32.00;;;;;;;;116816;1199;25646;-78
2022/12/25 07:12:27;;;;;;;;;41.00;30.00;;;;;;;;116758;1192;25613;-78
2022/12/25 07:14:55;;;;;;;;;42.50;34.00;;;;;;;;117118;1197;25637;-78
2022/12/25 07:17:23;;;;;;;;;38.50;31.00;;;;;;;;116737;1204;25408;-78
2022/12/25 07:19:52;;;;;;;;;36.00;30.00;;;;;;;;116770;1208;25563;-78
2022/12/25 07:22:20;;;;;;;;;38.00;28.00;;;;;;;;116765;1202;25367;-78
2022/12/25 07:24:48;;;;;;;;;32.00;26.00;;;;;;;;116797;1197;24821;-79
2022/12/25 07:27:16;;;;;;;;;31.00;26.00;;;;;;;;116784;1195;24963;-79
2022/12/25 07:29:44;;;;;;;;;33.00;30.50;;;;;;;;116804;1197;25345;-79
2022/12/25 07:32:13;;;;;;;;;35.00;30.00;;;;;;;;116789;1202;25596;-79
2022/12/25 07:34:41;;;;;;;;;31.00;26.00;;;;;;;;116775;1193;25333;-78
2022/12/25 07:37:09;;;;;;;;;33.33;29.00;;;;;;;;116764;1200;25616;-78
2022/12/25 07:39:38;;;;;;;;;31.50;25.00;;;;;;;;116767;1199;26007;-79
2022/12/25 07:42:06;;;;;;;;;31.00;29.00;;;;;;;;116767;1201;25226;-76
2022/12/25 07:44:34;;;;;;;;;33.00;25.00;;;;;;;;116761;1198;25788;-77
2022/12/25 07:47:03;;;;;;;;;34.50;28.00;;;;;;;;116787;1196;25580;-77
2022/12/25 07:49:31;;;;;;;;;25.00;19.50;;;;;;;;116758;1199;24722;-76
2022/12/25 07:51:59;;;;;;;;;;;;;;;;;;116749;1200;25042;-76
2022/12/25 07:54:27;;;;;;;;;28.33;24.67;;;;;;;;116759;1199;25374;-77
2022/12/25 07:56:56;;;;;;;;;25.00;24.00;;;;;;;;116761;1200;25059;-77
2022/12/25 07:59:25;;;;;;;;;21.00;17.00;;;;;;;;116616;1193;25385;-76
2022/12/25 08:01:53;;;;;;;;;29.00;27.00;;;;;;;;116754;1200;25301;-78
2022/12/25 08:04:22;;;;;;;;;37.00;31.33;;;;;;;;116764;1208;25501;-76
2022/12/25 08:06:51;;;;;;;;;40.50;33.50;;;;;;;;116791;1194;24987;-76
2022/12/25 08:09:20;;;;;;;;;40.00;33.00;;;;;;;;116759;1198;25116;-77
2022/12/25 08:11:48;;;;;;;;;41.50;35.00;;;;;;;;117081;1198;25264;-76
2022/12/25 08:14:16;;;;;;;;;48.00;34.00;;;;;;;;116773;1203;25033;-78
2022/12/25 08:16:45;;;;;;;;;46.50;35.00;;;;;;;;116795;1198;24737;-77
2022/12/25 08:19:14;;;;;;;;;41.50;35.00;;;;;;;;116751;1207;24919;-80
2022/12/25 08:21:43;;;;;;;;;47.00;34.67;;;;;;;;116804;1195;25116;-79
2022/12/25 08:24:11;;;;;;;;;42.50;34.50;;;;;;;;116802;1196;25180;-78
2022/12/25 08:26:40;;;;;;;;;39.00;34.50;;;;;;;;116819;1203;24864;-78
2022/12/25 08:29:09;;;;;;;;;36.00;31.00;;;;;;;;116812;1200;25272;-78
2022/12/25 08:31:37;;;;;;;;;39.00;31.50;;;;;;;;116714;1200;24895;-76
2022/12/25 08:34:13;;;;;;;;;43.33;34.67;;;;;;;;116786;1199;24868;-78
2022/12/25 08:36:41;;;;;;;;;47.00;36.00;;;;;;;;116757;1200;24971;-78
2022/12/25 08:39:09;;;;;;;;;40.50;32.00;;;;;;;;116763;1199;24746;-77
2022/12/25 08:41:43;;;;;;;;;38.00;31.50;;;;;;;;116776;1208;25479;-79
2022/12/25 08:44:11;;;;;;;;;38.33;35.00;;;;;;;;116805;1208;25002;-78
2022/12/25 08:46:42;;;;;;;;;37.33;30.67;;;;;;;;116728;1193;25270;-78
2022/12/25 08:49:11;;;;;;;;;39.00;33.33;;;;;;;;116804;1208;25626;-76
2022/12/25 08:51:39;;;;;;;;;46.00;36.00;;;;;;;;116793;1196;25364;-76
2022/12/25 08:54:12;;;;;;;;;40.00;31.00;;;;;;;;117075;1202;25725;-73
2022/12/25 08:56:42;;;;;;;;;35.00;31.00;;;;;;;;116803;1199;24959;-74
2022/12/25 08:59:11;;;;;;;;;47.50;34.00;;;;;;;;116798;1206;25749;-75
2022/12/25 09:01:39;;;;;;;;;45.00;34.00;;;;;;;;116801;1206;24931;-76
2022/12/25 09:04:10;;;;;;;;;43.00;33.00;;;;;;;;116734;1200;24922;-77
2022/12/25 09:06:38;;;;;;;;;35.50;30.00;;;;;;;;116798;1199;25411;-76
2022/12/25 09:09:09;;;;;;;;;42.00;36.00;;;;;;;;116835;1199;25097;-76
2022/12/25 09:11:39;;;;;;;;;40.00;33.00;;;;;;;;116762;1200;25685;-76
2022/12/25 09:14:12;;;;;;;;;37.00;31.00;;;;;;;;116790;1203;25073;-77
2022/12/25 09:16:41;;;;;;;;;39.00;33.00;;;;;;;;116813;1206;25479;-76
2022/12/25 09:19:09;;;;;;;;;37.00;31.00;;;;;;;;116735;1199;24836;-76
2022/12/25 09:21:41;;;;;;;;;42.00;31.33;;;;;;;;116734;1200;25021;-75
2022/12/25 09:24:09;;;;;;;;;43.00;35.00;;;;;;;;116767;1199;24983;-75
2022/12/25 09:26:38;;;;;;;;;40.00;33.00;;;;;;;;116855;1190;25199;-76
2022/12/25 09:29:06;;;;;;;;;28.00;26.00;;;;;;;;116745;1195;25602;-75
2022/12/25 09:31:35;;;;;;;;;42.00;33.00;;;;;;;;116766;1208;25537;-75
2022/12/25 09:34:03;;;;;;;;;40.00;33.00;;;;;;;;116785;1207;25143;-76
2022/12/25 09:36:31;;;;;;;;;53.00;35.50;;;;;;;;116733;1204;24834;-76
2022/12/25 09:39:00;;;;;;;;;40.00;35.50;;;;;;;;116775;1208;25622;-76
2022/12/25 09:41:47;;;;;;;;;41.00;35.00;;;;;;;;116751;1198;25001;-75
2022/12/25 09:44:20;;;;;;;;;38.50;33.00;;;;;;;;116775;1203;24815;-77
2022/12/25 09:47:35;;;;;;;;;40.00;33.00;;;;;;;;116795;1206;25178;-77
2022/12/25 09:50:31;;;;;;;;;45.00;34.00;;;;;;;;116782;1206;25568;-78
2022/12/25 09:53:11;;;;;;;;;38.00;29.00;;;;;;;;116794;1199;25376;-77
2022/12/25 09:55:47;;;;;;;;;38.00;32.00;;;;;;;;116776;1197;25541;-77
2022/12/25 09:58:15;;;;;;;;;41.50;34.00;;;;;;;;116799;1201;25680;-77
2022/12/25 10:01:11;;;;;;;;;38.00;33.00;;;;;;;;116773;1198;25443;-78
2022/12/25 10:04:10;;;;;;;;;40.50;33.50;;;;;;;;116700;1189;25435;-77
2022/12/25 10:06:59;;;;;;;;;27.50;24.00;;;;;;;;116655;1203;25669;-77
2022/12/25 10:09:55;;;;;;;;;41.50;31.50;;;;;;;;116756;1196;25185;-77
2022/12/25 10:12:51;;;;;;;;;32.67;26.00;;;;;;;;116792;1196;25464;-79
2022/12/25 10:15:32;;;;;;;;;30.00;23.00;;;;;;;;116757;1196;24935;-79
2022/12/25 10:18:12;;;;;;;;;24.50;21.00;;;;;;;;116798;1200;25080;-79
2022/12/25 10:20:52;;;;;;;;;36.00;30.33;;;;;;;;116778;1196;24900;-77
2022/12/25 10:23:24;;;;;;;;;32.50;30.00;;;;;;;;116768;1196;25429;-78
2022/12/25 10:25:55;;;;;;;;;28.00;25.50;;;;;;;;116800;1208;24797;-77
2022/12/25 10:28:37;;;;;;;;;39.50;31.00;;;;;;;;116766;1200;24877;-78
2022/12/25 10:31:23;;;;;;;;;26.00;25.00;;;;;;;;116811;1204;24928;-77
2022/12/25 10:33:53;;;;;;;;;33.00;25.67;;;;;;;;116809;1202;25567;-77
2022/12/25 10:36:26;;;;;;;;;31.50;23.50;;;;;;;;116797;1206;24719;-77
2022/12/25 10:38:55;;;;;;;;;27.00;25.00;;;;;;;;116745;1206;25648;-77
2022/12/25 10:41:42;;;;;;;;;28.33;23.00;;;;;;;;116803;1196;24860;-77
2022/12/25 10:44:23;;;;;;;;;35.00;30.00;;;;;;;;116763;1199;25181;-77
2022/12/25 10:46:56;;;;;;;;;29.50;27.50;;;;;;;;116802;1200;25230;-76
2022/12/25 10:49:30;;;;;;;;;24.00;19.00;;;;;;;;116598;1206;24721;-80
2022/12/25 10:51:59;;;;;;;;;40.33;27.67;;;;;;;;116775;1206;25029;-77
2022/12/25 10:54:33;;;;;;;;;37.50;29.50;;;;;;;;116762;1208;24906;-79
2022/12/25 10:57:11;;;;;;;;;40.00;32.00;;;;;;;;116804;1198;25031;-78
2022/12/25 10:59:48;;;;;;;;;30.50;26.50;;;;;;;;116780;1199;25423;-78
2022/12/25 11:02:29;;;;;;;;;26.00;23.00;;;;;;;;116769;1196;25314;-77
2022/12/25 11:05:05;;;;;;;;;32.50;24.00;;;;;;;;116831;1205;26003;-75
2022/12/25 11:07:53;;;;;;;;;45.00;34.00;;;;;;;;116796;1203;24909;-79
2022/12/25 11:10:42;;;;;;;;;32.00;29.00;;;;;;;;116799;1200;24822;-79
2022/12/25 11:13:28;;;;;;;;;38.00;32.00;;;;;;;;116801;1203;24814;-80
2022/12/25 11:16:02;;;;;;;;;29.50;21.00;;;;;;;;116638;1202;24925;-79
2022/12/25 11:18:44;;;;;;;;;37.00;26.00;;;;;;;;116726;1199;25393;-79
2022/12/25 11:21:22;;;;;;;;;34.33;28.00;;;;;;;;116802;1199;25300;-79
2022/12/25 11:23:59;;;;;;;;;31.00;27.00;;;;;;;;116797;1200;25475;-77
2022/12/25 11:26:30;;;;;;;;;35.00;30.00;;;;;;;;116755;1200;24800;-80
2022/12/25 11:28:58;;;;;;;;;30.50;26.00;;;;;;;;116776;1202;25564;-79
2022/12/25 11:31:39;;;;;;;;;30.67;24.00;;;;;;;;116778;1198;25513;-80
2022/12/25 11:34:30;;;;;;;;;28.50;22.00;;;;;;;;116618;1196;25650;-79
2022/12/25 11:37:00;;;;;;;;;23.00;21.00;;;;;;;;116784;1197;25178;-81
2022/12/25 11:39:36;;;;;;;;;29.00;23.00;;;;;;;;116789;1200;24817;-82
2022/12/25 11:42:12;;;;;;;;;44.00;30.50;;;;;;;;116774;1196;25296;-83
2022/12/25 11:45:04;;;;;;;;;22.67;16.67;;;;;;;;116784;1199;25077;-83
2022/12/25 11:47:39;;;;;;;;;31.33;27.33;;;;;;;;116791;1196;25053;-82
2022/12/25 11:50:29;;;;;;;;;35.00;27.50;;;;;;;;116751;1203;25236;-82
2022/12/25 11:53:02;;;;;;;;;34.00;28.00;;;;;;;;116786;1195;25480;-81
2022/12/25 11:55:41;;;;;;;;;32.00;27.67;;;;;;;;116768;1202;24766;-82
2022/12/25 11:58:23;;;;;;;;;33.50;27.50;;;;;;;;116805;1203;25112;-82
2022/12/25 12:00:55;;;;;;;;;35.33;28.00;;;;;;;;117094;1200;25089;-82
2022/12/25 12:03:25;;;;;;;;;33.33;24.00;;;;;;;;116771;1200;25176;-83
2022/12/25 12:06:02;;;;;;;;;22.00;22.00;;;;;;;;116785;1200;24785;-82
2022/12/25 12:08:32;;;;;;;;;29.00;25.00;;;;;;;;116723;1208;25084;-83
2022/12/25 12:11:26;;;;;;;;;32.50;26.00;;;;;;;;116776;1203;24882;-83
2022/12/25 12:14:13;;;;;;;;;23.00;20.00;;;;;;;;116743;1203;25365;-83
2022/12/25 12:16:41;;;;;;;;;32.50;25.50;;;;;;;;116734;1199;24751;-82
2022/12/25 12:19:12;;;;;;;;;33.50;27.00;;;;;;;;116772;1193;25277;-83
2022/12/25 12:21:42;;;;;;;;;31.00;23.00;;;;;;;;116813;1197;25460;-83
2022/12/25 12:24:18;;;;;;;;;22.50;17.50;;;;;;;;116793;1200;25121;-82
2022/12/25 12:26:59;;;;;;;;;26.00;20.00;;;;;;;;116776;1197;24665;-83
2022/12/25 12:29:30;;;;;;;;;21.50;16.50;;;;;;;;116758;1206;25236;-82
2022/12/25 12:32:01;;;;;;;;;30.50;26.00;;;;;;;;116729;1199;25957;-82
2022/12/25 12:34:46;;;;;;;;;37.00;25.67;;;;;;;;116751;1193;25504;-81
2022/12/25 12:37:27;;;;;;;;;27.50;24.00;;;;;;;;116794;1203;25375;-81
2022/12/25 12:39:55;;;;;;;;;32.00;23.50;;;;;;;;116788;1203;25202;-82
2022/12/25 12:42:30;;;;;;;;;29.33;24.00;;;;;;;;116783;1208;24888;-82
2022/12/25 12:45:19;;;;;;;;;29.50;24.00;;;;;;;;116776;1199;24853;-82
2022/12/25 12:47:49;;;;;;;;;25.00;21.50;;;;;;;;116717;1199;24915;-82
2022/12/25 12:50:39;;;;;;;;;29.00;22.00;;;;;;;;116810;1208;25484;-83
2022/12/25 12:53:22;;;;;;;;;29.33;25.00;;;;;;;;116782;1199;25559;-82
2022/12/25 12:55:51;;;;;;;;;32.00;24.00;;;;;;;;116740;1195;24695;-82
2022/12/25 12:58:34;;;;;;;;;32.00;26.00;;;;;;;;116737;1200;25672;-83
2022/12/25 13:01:16;;;;;;;;;31.50;26.00;;;;;;;;116762;1195;25454;-82
2022/12/25 13:04:05;;;;;;;;;30.00;26.00;;;;;;;;116751;1203;25603;-82
2022/12/25 13:06:57;;;;;;;;;36.00;25.50;;;;;;;;116791;1207;25203;-83
2022/12/25 13:10:03;;;;;;;;;23.50;23.00;;;;;;;;116791;1205;25026;-83
2022/12/25 13:12:31;;;;;;;;;28.00;23.00;;;;;;;;116601;1208;25645;-83
2022/12/25 13:15:00;;;;;;;;;26.00;22.00;;;;;;;;116744;1198;25674;-82
2022/12/25 13:17:28;;;;;;;;;28.00;25.00;;;;;;;;116791;1200;25542;-81
2022/12/25 13:19:58;;;;;;;;;27.00;25.00;;;;;;;;116713;1203;25046;-81
2022/12/25 13:22:33;;;;;;;;;23.00;20.50;;;;;;;;116762;1205;24664;-78
2022/12/25 13:25:06;;;;;;;;;21.33;20.00;;;;;;;;116769;1200;24865;-81
2022/12/25 13:27:34;;;;;;;;;24.50;18.00;;;;;;;;116788;1208;25665;-81
2022/12/25 13:30:19;;;;;;;;;27.00;24.00;;;;;;;;116734;1201;25338;-82
2022/12/25 13:32:48;;;;;;;;;28.00;20.00;;;;;;;;116751;1199;25265;-82
2022/12/25 13:35:17;;;;;;;;;26.50;20.00;;;;;;;;116770;1199;24858;-83
2022/12/25 13:37:46;;;;;;;;;23.50;17.00;;;;;;;;116768;1198;24726;-81
2022/12/25 13:40:24;;;;;;;;;32.00;24.00;;;;;;;;116780;1194;25734;-81
2022/12/25 13:42:59;;;;;;;;;25.50;19.50;;;;;;;;116741;1206;25604;-82
2022/12/25 13:45:29;;;;;;;;;21.33;18.67;;;;;;;;116770;1198;24992;-83
2022/12/25 13:48:09;;;;;;;;;23.00;21.00;;;;;;;;116780;1205;25355;-83
2022/12/25 13:50:37;;;;;;;;;25.00;21.00;;;;;;;;116781;1198;25025;-82
2022/12/25 13:53:12;;;;;;;;;23.33;20.00;;;;;;;;116767;1203;24734;-82
2022/12/25 13:55:41;;;;;;;;;16.00;16.00;;;;;;;;116741;1206;25602;-82
2022/12/25 13:58:17;;;;;;;;;25.00;21.00;;;;;;;;116713;1196;25634;-82
2022/12/25 14:00:48;;;;;;;;;32.00;24.00;;;;;;;;116777;1207;25194;-81
2022/12/25 14:03:29;;;;;;;;;19.00;17.00;;;;;;;;116729;1196;24934;-81
2022/12/25 14:05:59;;;;;;;;;23.00;17.00;;;;;;;;116723;1206;25163;-83
2022/12/25 14:08:32;;;;;;;;;13.00;9.00;;;;;;;;116771;1197;25557;-82
2022/12/25 14:11:04;;;;;;;;;20.50;18.00;;;;;;;;116781;1193;25399;-82
2022/12/25 14:13:35;;;;;;;;;23.00;18.33;;;;;;;;116836;1198;25249;-82
2022/12/25 14:16:04;;;;;;;;;24.50;15.50;;;;;;;;116776;1200;25163;-82
2022/12/25 14:18:32;;;;;;;;;20.00;17.00;;;;;;;;116788;1199;24827;-82
2022/12/25 14:21:15;;;;;;;;;18.00;15.00;;;;;;;;116744;1199;25142;-82
2022/12/25 14:23:47;;;;;;;;;21.00;17.00;;;;;;;;116793;1202;25520;-81
2022/12/25 14:26:29;;;;;;;;;13.00;13.00;;;;;;;;116779;1202;24762;-82
2022/12/25 14:29:09;;;;;;;;;21.00;21.00;;;;;;;;116771;1206;25018;-82
2022/12/25 14:31:46;;;;;;;;;18.50;16.00;;;;;;;;116808;1199;24705;-82
2022/12/25 14:34:22;;;;;;;;;16.00;14.00;;;;;;;;116814;1203;24686;-82
2022/12/25 14:36:51;;;;;;;;;18.00;15.00;;;;;;;;116783;1208;25111;-82
2022/12/25 14:39:34;;;;;;;;;14.50;13.00;;;;;;;;116722;1197;25384;-82
2022/12/25 14:42:22;;;;;;;;;17.00;14.50;;;;;;;;116764;1205;24977;-82
2022/12/25 14:44:59;;;;;;;;;19.00;14.50;;;;;;;;116781;1196;25554;-82
2022/12/25 14:47:28;;;;;;;;;14.00;13.00;;;;;;;;116760;1189;24989;-82
2022/12/25 14:49:57;;;;;;;;;24.00;17.00;;;;;;;;116743;1199;25335;-82
2022/12/25 14:52:28;;;;;;;;;21.00;13.00;;;;;;;;116775;1204;25651;-81
2022/12/25 14:55:03;;;;;;;;;19.67;14.67;;;;;;;;116812;1200;25626;-82
2022/12/25 14:57:39;;;;;;;;;13.50;9.50;;;;;;;;116764;1203;25220;-82
2022/12/25 15:00:25;;;;;;;;;14.50;10.00;;;;;;;;116790;1203;24916;-82
2022/12/25 15:02:55;;;;;;;;;10.00;8.50;;;;;;;;116818;1198;25040;-82
2022/12/25 15:05:30;;;;;;;;;16.00;14.00;;;;;;;;116771;1208;24701;-82
2022/12/25 15:08:09;;;;;;;;;22.00;14.00;;;;;;;;116630;1206;25778;-82
2022/12/25 15:10:38;;;;;;;;;16.50;15.50;;;;;;;;116771;1188;25003;-82
2022/12/25 15:13:27;;;;;;;;;21.00;13.00;;;;;;;;116790;1200;25044;-82
2022/12/25 15:16:03;;;;;;;;;13.00;12.00;;;;;;;;116776;1199;24833;-82
2022/12/25 15:18:37;;;;;;;;;14.00;13.00;;;;;;;;116795;1195;24997;-80
2022/12/25 15:21:06;;;;;;;;;15.50;12.00;;;;;;;;116796;1197;25618;-82
2022/12/25 15:23:34;;;;;;;;;19.00;14.00;;;;;;;;116778;1207;24763;-82
2022/12/25 15:26:03;;;;;;;;;17.00;14.50;;;;;;;;116796;1203;24827;-82
2022/12/25 15:28:31;;;;;;;;;15.00;12.00;;;;;;;;116806;1196;24908;-82
2022/12/25 15:30:59;;;;;;;;;14.00;8.00;;;;;;;;116781;1196;25250;-82
2022/12/25 15:33:28;;;;;;;;;14.50;14.00;;;;;;;;116758;1200;25474;-82
2022/12/25 15:35:56;;;;;;;;;11.50;11.00;;;;;;;;116785;1203;25636;-82
2022/12/25 15:38:24;;;;;;;;;16.00;11.75;;;;;;;;116829;1208;24963;-82
2022/12/25 15:40:52;;;;;;;;;18.00;16.00;;;;;;;;116815;1200;25233;-82
2022/12/25 15:43:21;;;;;;;;;20.50;18.50;;;;;;;;116785;1200;25407;-82
2022/12/25 15:46:07;;;;;;;;;18.00;17.50;;;;;;;;117054;1191;25515;-82
2022/12/25 15:48:36;;;;;;;;;20.00;17.33;;;;;;;;116756;1197;25183;-82
2022/12/25 15:51:04;;;;;;;;;20.75;14.00;;;;;;;;116773;1196;25550;-82
2022/12/25 15:53:32;;;;;;;;;22.00;17.50;;;;;;;;116760;1199;24777;-82
2022/12/25 15:56:01;;;;;;;;;20.50;15.00;;;;;;;;116771;1203;24950;-82
2022/12/25 15:58:29;;;;;;;;;19.67;14.67;;;;;;;;116798;1206;25575;-82
2022/12/25 16:00:57;;;;;;;;;23.00;18.00;;;;;;;;116761;1193;25382;-82
2022/12/25 16:03:25;;;;;;;;;19.00;15.00;;;;;;;;116772;1200;27848;-82
2022/12/25 16:05:54;;;;;;;;;12.50;9.50;;;;;;;;116789;1199;25151;-82
2022/12/25 16:08:23;;;;;;;;;10.33;10.33;;;;;;;;116795;1208;25213;-82
2022/12/25 16:10:52;;;;;;;;;15.50;13.00;;;;;;;;116795;1199;24848;-82
2022/12/25 16:13:22;;;;;;;;;20.33;14.00;;;;;;;;116793;1196;25310;-82
2022/12/25 16:15:50;;;;;;;;;23.00;14.00;;;;;;;;116827;1202;24976;-83
2022/12/25 16:18:18;;;;;;;;;17.00;12.00;;;;;;;;116780;1200;25640;-83
2022/12/25 16:20:46;;;;;;;;;18.00;14.50;;;;;;;;116766;1204;25329;-82